Time;durP1;ratioP1;P1;durP2;ratioP2;P2;SDS_P1;SDS_P2;PMS_P1;PMS_P2;Temp;Humidity;BMP_temperature;BMP_pressure;BME280_temperature;BME280_humidity;BME280_pressure;Samples;Min_cycle;Max_cycle;Signal;HPM_P1;HPM_P2
2023/01/07 00:01:02;;;;;;;;;;;;;;;-144.47;100.00;61586.06;5024662;28;19980;-74
2023/01/07 00:03:28;;;;;;;;;;;;;;;-144.47;100.00;61586.06;5021825;28;19924;-73
2023/01/07 00:06:10;;;;;;;;;;;;;;;-144.47;100.00;61586.06;5023532;28;19963;-76
2023/01/07 00:08:37;;;;;;;;;;;;;;;-144.47;100.00;61586.06;5021395;28;20759;-74
2023/01/07 00:11:04;;;;;;;;;;;;;;;-144.47;100.00;61586.06;5022726;28;19924;-73
2023/01/07 00:13:30;;;;;;;;;;;;;;;-144.47;100.00;61586.06;5024072;28;20277;-75
2023/01/07 00:16:00;;;;;;;;;;;;;;;-144.47;100.00;61586.06;5022840;28;19917;-73
2023/01/07 00:18:26;;;;;;;;;;;;;;;-144.47;100.00;61586.06;5021221;28;19924;-73
2023/01/07 00:20:55;;;;;;;;;;;;;;;-144.47;100.00;61586.06;5023339;28;20076;-73
2023/01/07 00:23:23;;;;;;;;;;;;;;;-144.47;100.00;61586.06;5022587;28;19918;-73
2023/01/07 00:25:49;;;;;;;;;;;;;;;-144.47;100.00;61586.06;5023637;28;19917;-75
2023/01/07 00:28:14;;;;;;;;;;;;;;;-144.47;100.00;61586.06;5021856;28;19924;-74
2023/01/07 00:30:39;;;;;;;;;;;;;;;-144.47;100.00;61586.06;5024261;28;20021;-75
2023/01/07 00:33:06;;;;;;;;;;;;;;;-144.47;100.00;61586.06;5020027;28;19967;-73
2023/01/07 00:35:38;;;;;;;;;;;;;;;-144.47;100.00;61586.06;5021573;28;19960;-73
2023/01/07 00:38:04;;;;;;;;;;;;;;;-144.47;100.00;61586.06;5024359;28;20281;-73
2023/01/07 00:40:30;;;;;;;;;;;;;;;-144.47;100.00;61586.06;5020754;28;19917;-74
2023/01/07 00:43:01;;;;;;;;;;;;;;;-144.47;100.00;61586.06;5023147;28;19967;-73
2023/01/07 00:45:28;;;;;;;;;;;;;;;-144.47;100.00;61586.06;5022229;28;19917;-72
2023/01/07 00:47:54;;;;;;;;;;;;;;;-144.47;100.00;61586.06;5021679;28;20285;-73
2023/01/07 00:50:21;;;;;;;;;;;;;;;-144.47;100.00;61586.06;5023073;28;19920;-72
2023/01/07 00:52:46;;;;;;;;;;;;;;;-144.47;100.00;61586.06;5021159;28;20374;-72
2023/01/07 00:55:13;;;;;;;;;;;;;;;-144.47;100.00;61586.06;5020188;28;19917;-72
2023/01/07 00:57:40;;;;;;;;;;;;;;;-144.47;100.00;61586.06;5022861;28;19975;-73
2023/01/07 01:00:07;;;;;;;;;;;;;;;-144.47;100.00;61586.06;5019782;28;19924;-74
2023/01/07 01:02:32;;;;;;;;;;;;;;;-144.47;100.00;61586.06;5022516;28;20289;-72
2023/01/07 01:04:58;;;;;;;;;;;;;;;-144.47;100.00;61586.06;5021558;28;20019;-74
2023/01/07 01:07:23;;;;;;;;;;;;;;;-144.47;100.00;61586.06;5021981;28;19964;-73
2023/01/07 01:09:49;;;;;;;;;;;;;;;-144.47;100.00;61586.06;5021014;28;19924;-73
2023/01/07 01:12:14;;;;;;;;;;;;;;;-144.47;100.00;61586.06;5019429;28;20462;-75
2023/01/07 01:14:40;;;;;;;;;;;;;;;-144.47;100.00;61586.06;5023468;28;19964;-75
2023/01/07 01:17:05;;;;;;;;;;;;;;;-144.47;100.00;61586.06;5018528;28;19917;-73
2023/01/07 01:19:30;;;;;;;;;;;;;;;-144.47;100.00;61586.06;5019554;28;19925;-73
2023/01/07 01:21:56;;;;;;;;;;;;;;;-144.47;100.00;61586.06;5018316;28;19924;-74
2023/01/07 01:24:21;;;;;;;;;;;;;;;-144.47;100.00;61586.06;5021184;28;19979;-74
2023/01/07 01:26:47;;;;;;;;;;;;;;;-144.47;100.00;61586.06;5019449;28;20361;-72
2023/01/07 01:29:12;;;;;;;;;;;;;;;-144.47;100.00;61586.06;5020048;28;20016;-75
2023/01/07 01:31:37;;;;;;;;;;;;;;;-144.47;100.00;61586.06;5018367;28;19979;-73
2023/01/07 01:34:04;;;;;;;;;;;;;;;-144.47;100.00;61586.06;5021842;28;20049;-71
2023/01/07 01:36:32;;;;;;;;;;;;;;;-144.47;100.00;61586.06;5021787;28;20397;-73
2023/01/07 01:38:58;;;;;;;;;;;;;;;-144.47;100.00;61586.06;5018250;28;19918;-73
2023/01/07 01:41:27;;;;;;;;;;;;;;;-144.47;100.00;61586.06;5021200;28;19987;-73
2023/01/07 01:43:55;;;;;;;;;;;;;;;-144.47;100.00;61586.06;5023914;28;19971;-73
2023/01/07 01:46:41;;;;;;;;;;;;;;;-144.47;100.00;61586.06;5013880;28;19964;-74
2023/01/07 01:49:07;;;;;;;;;;;;;;;-144.47;100.00;61586.06;5014955;28;19925;-72
2023/01/07 01:51:37;;;;;;;;;;;;;;;-144.47;100.00;61586.06;5016800;28;20377;-72
2023/01/07 01:54:06;;;;;;;;;;;;;;;-144.47;100.00;61586.06;5020871;28;19957;-73
2023/01/07 01:56:37;;;;;;;;;;;;;;;-144.47;100.00;61586.06;5024036;28;19917;-73
2023/01/07 01:59:09;;;;;;;;;;;;;;;-144.47;100.00;61586.06;5017044;28;19921;-71
2023/01/07 02:01:35;;;;;;;;;;;;;;;-144.47;100.00;61586.06;5017217;28;19921;-73
2023/01/07 02:04:06;;;;;;;;;;;;;;;-144.47;100.00;61586.06;5018979;28;19917;-72
2023/01/07 02:06:35;;;;;;;;;;;;;;;-144.47;100.00;61586.06;5017231;28;19917;-74
2023/01/07 02:09:00;;;;;;;;;;;;;;;-144.47;100.00;61586.06;5021847;28;19921;-72
2023/01/07 02:11:29;;;;;;;;;;;;;;;-144.47;100.00;61586.06;5019070;28;20302;-74
2023/01/07 02:14:03;;;;;;;;;;;;;;;-144.47;100.00;61586.06;5021456;28;19922;-73
2023/01/07 02:16:32;;;;;;;;;;;;;;;-144.47;100.00;61586.06;5019714;28;20377;-73
2023/01/07 02:19:03;;;;;;;;;;;;;;;-144.47;100.00;61586.06;5018043;28;20452;-73
2023/01/07 02:21:47;;;;;;;;;;;;;;;-144.47;100.00;61586.06;5019661;28;20007;-74
2023/01/07 02:24:34;;;;;;;;;;;;;;;-144.47;100.00;61586.06;5016635;28;19940;-73
2023/01/07 02:27:05;;;;;;;;;;;;;;;-144.47;100.00;61586.06;5016348;28;19929;-72
2023/01/07 02:29:50;;;;;;;;;;;;;;;-144.47;100.00;61586.06;5019549;28;19924;-73
2023/01/07 02:32:25;;;;;;;;;;;;;;;-144.47;100.00;61586.06;5017250;28;19918;-74
2023/01/07 02:34:50;;;;;;;;;;;;;;;-144.47;100.00;61586.06;5019392;28;19994;-74
2023/01/07 02:37:22;;;;;;;;;;;;;;;-144.47;100.00;61586.06;5021365;28;20334;-74
2023/01/07 02:39:56;;;;;;;;;;;;;;;-144.47;100.00;61586.06;5004178;28;19940;-73
2023/01/07 02:42:41;;;;;;;;;;;;;;;-144.47;100.00;61586.06;5019272;28;19917;-74
2023/01/07 02:45:15;;;;;;;;;;;;;;;-144.47;100.00;61586.06;5021848;28;19924;-73
2023/01/07 02:47:44;;;;;;;;;;;;;;;-144.47;100.00;61586.06;5024655;28;19921;-73
2023/01/07 02:50:09;;;;;;;;;;;;;;;-144.47;100.00;61586.06;5023800;28;19970;-74
2023/01/07 02:52:35;;;;;;;;;;;;;;;-144.47;100.00;61586.06;5022243;28;19917;-74
2023/01/07 02:55:08;;;;;;;;;;;;;;;-144.47;100.00;61586.06;5024189;28;19921;-74
2023/01/07 02:57:34;;;;;;;;;;;;;;;-144.47;100.00;61586.06;5024182;28;19948;-74
2023/01/07 03:00:02;;;;;;;;;;;;;;;-144.47;100.00;61586.06;5023338;28;19967;-74
2023/01/07 03:02:31;;;;;;;;;;;;;;;-144.47;100.00;61586.06;5021567;28;19921;-73
2023/01/07 03:05:22;;;;;;;;;;;;;;;-144.47;100.00;61586.06;5024684;28;19963;-73
2023/01/07 03:07:48;;;;;;;;;;;;;;;-144.47;100.00;61586.06;5024594;28;21183;-74
2023/01/07 03:10:14;;;;;;;;;;;;;;;-144.47;100.00;61586.06;5024187;28;19924;-75
2023/01/07 03:12:39;;;;;;;;;;;;;;;-144.47;100.00;61586.06;5018956;28;19974;-73
2023/01/07 03:15:10;;;;;;;;;;;;;;;-144.47;100.00;61586.06;5023442;28;19964;-75
2023/01/07 03:17:40;;;;;;;;;;;;;;;-144.47;100.00;61586.06;5028103;28;20533;-75
2023/01/07 03:20:06;;;;;;;;;;;;;;;-144.47;100.00;61586.06;5022447;28;20288;-74
2023/01/07 03:22:33;;;;;;;;;;;;;;;-144.47;100.00;61586.06;5022117;28;19925;-74
2023/01/07 03:25:00;;;;;;;;;;;;;;;-144.47;100.00;61586.06;5024208;28;20227;-74
2023/01/07 03:27:29;;;;;;;;;;;;;;;-144.47;100.00;61586.06;5023104;28;19924;-74
2023/01/07 03:29:55;;;;;;;;;;;;;;;-144.47;100.00;61586.06;5024887;28;20341;-75
2023/01/07 03:32:39;;;;;;;;;;;;;;;-144.47;100.00;61586.06;5025235;28;19922;-75
2023/01/07 03:35:04;;;;;;;;;;;;;;;-144.47;100.00;61586.06;5022225;28;19982;-74
2023/01/07 03:37:31;;;;;;;;;;;;;;;-144.47;100.00;61586.06;5025486;28;19920;-75
2023/01/07 03:39:58;;;;;;;;;;;;;;;-144.47;100.00;61586.06;5021380;28;19979;-75
2023/01/07 03:42:39;;;;;;;;;;;;;;;-144.47;100.00;61586.06;5020774;28;20262;-75
2023/01/07 03:45:17;;;;;;;;;;;;;;;-144.47;100.00;61586.06;5017466;28;19983;-74
2023/01/07 03:47:45;;;;;;;;;;;;;;;-144.47;100.00;61586.06;5019134;28;20008;-75
2023/01/07 03:50:13;;;;;;;;;;;;;;;-144.47;100.00;61586.06;5026164;28;20296;-76
2023/01/07 03:52:41;;;;;;;;;;;;;;;-144.47;100.00;61586.06;5020398;28;19921;-75
2023/01/07 03:55:07;;;;;;;;;;;;;;;-144.47;100.00;61586.06;5024711;28;19917;-74
2023/01/07 03:57:32;;;;;;;;;;;;;;;-144.47;100.00;61586.06;5024271;28;19924;-75
2023/01/07 04:00:00;;;;;;;;;;;;;;;-144.47;100.00;61586.06;5020011;28;19921;-75
2023/01/07 04:02:27;;;;;;;;;;;;;;;-144.47;100.00;61586.06;5022102;28;20300;-76
2023/01/07 04:04:52;;;;;;;;;;;;;;;-144.47;100.00;61586.06;5025231;28;19917;-75
2023/01/07 04:07:19;;;;;;;;;;;;;;;-144.47;100.00;61586.06;5021449;28;19917;-75
2023/01/07 04:09:46;;;;;;;;;;;;;;;-144.47;100.00;61586.06;5023349;28;19917;-75
2023/01/07 04:12:12;;;;;;;;;;;;;;;-144.47;100.00;61586.06;5020573;28;19989;-75
2023/01/07 04:14:38;;;;;;;;;;;;;;;-144.47;100.00;61586.06;5020778;28;20048;-74
2023/01/07 04:17:04;;;;;;;;;;;;;;;-144.47;100.00;61586.06;5022534;28;20400;-75
2023/01/07 04:19:29;;;;;;;;;;;;;;;-144.47;100.00;61586.06;5021785;28;19924;-74
2023/01/07 04:21:56;;;;;;;;;;;;;;;-144.47;100.00;61586.06;5024155;28;20566;-75
2023/01/07 04:24:22;;;;;;;;;;;;;;;-144.47;100.00;61586.06;5023064;28;19923;-75
2023/01/07 04:26:47;;;;;;;;;;;;;;;-144.47;100.00;61586.06;5025542;28;19917;-75
2023/01/07 04:29:13;;;;;;;;;;;;;;;-144.47;100.00;61586.06;5021593;28;19916;-74
2023/01/07 04:31:38;;;;;;;;;;;;;;;-144.47;100.00;61586.06;5023640;28;20432;-75
2023/01/07 04:34:04;;;;;;;;;;;;;;;-144.47;100.00;61586.06;5021297;28;19925;-75
2023/01/07 04:36:30;;;;;;;;;;;;;;;-144.47;100.00;61586.06;5021030;28;19969;-75
2023/01/07 04:38:56;;;;;;;;;;;;;;;-144.47;100.00;61586.06;5018965;28;20419;-73
2023/01/07 04:41:21;;;;;;;;;;;;;;;-144.47;100.00;61586.06;5020153;28;19956;-74
2023/01/07 04:43:48;;;;;;;;;;;;;;;-144.47;100.00;61586.06;5021191;28;19917;-75
2023/01/07 04:46:14;;;;;;;;;;;;;;;-144.47;100.00;61586.06;5020516;28;19917;-75
2023/01/07 04:48:39;;;;;;;;;;;;;;;-144.47;100.00;61586.06;5024114;28;19921;-75
2023/01/07 04:51:05;;;;;;;;;;;;;;;-144.47;100.00;61586.06;5022328;28;20008;-74
2023/01/07 04:53:31;;;;;;;;;;;;;;;-144.47;100.00;61586.06;5021055;28;20004;-75
2023/01/07 04:55:58;;;;;;;;;;;;;;;-144.47;100.00;61586.06;5022834;28;20269;-75
2023/01/07 04:58:23;;;;;;;;;;;;;;;-144.47;100.00;61586.06;5018256;28;20008;-74
2023/01/07 05:00:51;;;;;;;;;;;;;;;-144.47;100.00;61586.06;5007883;28;19917;-74
2023/01/07 05:03:18;;;;;;;;;;;;;;;-144.47;100.00;61586.06;5020163;28;20346;-74
2023/01/07 05:05:44;;;;;;;;;;;;;;;-144.47;100.00;61586.06;5021238;28;19921;-74
2023/01/07 05:08:10;;;;;;;;;;;;;;;-144.47;100.00;61586.06;5022600;28;19921;-74
2023/01/07 05:10:36;;;;;;;;;;;;;;;-144.47;100.00;61586.06;5020696;28;20019;-74
2023/01/07 05:13:04;;;;;;;;;;;;;;;-144.47;100.00;61586.06;5022248;28;19953;-74
2023/01/07 05:15:31;;;;;;;;;;;;;;;-144.47;100.00;61586.06;5018490;28;19952;-75
2023/01/07 05:17:58;;;;;;;;;;;;;;;-144.47;100.00;61586.06;5022768;28;19917;-75
2023/01/07 05:20:24;;;;;;;;;;;;;;;-144.47;100.00;61586.06;5020637;28;20412;-75
2023/01/07 05:22:50;;;;;;;;;;;;;;;-144.47;100.00;61586.06;5007592;28;19925;-74
2023/01/07 05:25:16;;;;;;;;;;;;;;;-144.47;100.00;61586.06;5018927;28;19979;-74
2023/01/07 05:27:42;;;;;;;;;;;;;;;-144.47;100.00;61586.06;5022168;28;19917;-74
2023/01/07 05:30:09;;;;;;;;;;;;;;;-144.47;100.00;61586.06;5022513;28;20293;-74
2023/01/07 05:32:34;;;;;;;;;;;;;;;-144.47;100.00;61586.06;5019469;28;19920;-73
2023/01/07 05:35:00;;;;;;;;;;;;;;;-144.47;100.00;61586.06;5016909;28;20360;-74
2023/01/07 05:37:26;;;;;;;;;;;;;;;-144.47;100.00;61586.06;5021386;28;19917;-74
2023/01/07 05:39:52;;;;;;;;;;;;;;;-144.47;100.00;61586.06;5022265;28;19917;-74
2023/01/07 05:42:19;;;;;;;;;;;;;;;-144.47;100.00;61586.06;5021908;28;19916;-75
2023/01/07 05:44:44;;;;;;;;;;;;;;;-144.47;100.00;61586.06;5022426;28;19972;-74
2023/01/07 05:47:10;;;;;;;;;;;;;;;-144.47;100.00;61586.06;5016435;28;19921;-74
2023/01/07 05:49:35;;;;;;;;;;;;;;;-144.47;100.00;61586.06;5019852;28;19917;-74
2023/01/07 05:52:01;;;;;;;;;;;;;;;-144.47;100.00;61586.06;5023345;28;19921;-74
2023/01/07 05:54:26;;;;;;;;;;;;;;;-144.47;100.00;61586.06;5020360;28;19918;-73
2023/01/07 05:56:51;;;;;;;;;;;;;;;-144.47;100.00;61586.06;5024654;28;19917;-73
2023/01/07 05:59:17;;;;;;;;;;;;;;;-144.47;100.00;61586.06;5020737;28;19913;-73
2023/01/07 06:01:42;;;;;;;;;;;;;;;-144.47;100.00;61586.06;5020009;28;19917;-76
2023/01/07 06:04:08;;;;;;;;;;;;;;;-144.47;100.00;61586.06;5023083;28;19963;-76
2023/01/07 06:06:33;;;;;;;;;;;;;;;-144.47;100.00;61586.06;5018895;28;19913;-74
2023/01/07 06:08:59;;;;;;;;;;;;;;;-144.47;100.00;61586.06;5021601;28;19933;-73
2023/01/07 06:11:24;;;;;;;;;;;;;;;-144.47;100.00;61586.06;5022400;28;19913;-74
2023/01/07 06:13:49;;;;;;;;;;;;;;;-144.47;100.00;61586.06;5020559;28;19928;-75
2023/01/07 06:16:15;;;;;;;;;;;;;;;-144.47;100.00;61586.06;5024001;28;19916;-74
2023/01/07 06:18:41;;;;;;;;;;;;;;;-144.47;100.00;61586.06;5019094;28;19921;-74
2023/01/07 06:21:06;;;;;;;;;;;;;;;-144.47;100.00;61586.06;5022859;28;19917;-74
2023/01/07 06:23:32;;;;;;;;;;;;;;;-144.47;100.00;61586.06;5018844;28;19925;-74
2023/01/07 06:25:57;;;;;;;;;;;;;;;-144.47;100.00;61586.06;5020165;28;20007;-74
2023/01/07 06:28:22;;;;;;;;;;;;;;;-144.47;100.00;61586.06;5020965;28;19924;-74
2023/01/07 06:30:48;;;;;;;;;;;;;;;-144.47;100.00;61586.06;5022016;28;19917;-74
2023/01/07 06:33:14;;;;;;;;;;;;;;;-144.47;100.00;61586.06;5019877;28;19999;-75
2023/01/07 06:35:40;;;;;;;;;;;;;;;-144.47;100.00;61586.06;5023498;28;19921;-74
2023/01/07 06:38:05;;;;;;;;;;;;;;;-144.47;100.00;61586.06;5022899;28;19913;-74
2023/01/07 06:40:31;;;;;;;;;;;;;;;-144.47;100.00;61586.06;5017568;28;19917;-74
2023/01/07 06:42:56;;;;;;;;;;;;;;;-144.47;100.00;61586.06;5021710;28;19922;-75
2023/01/07 06:45:21;;;;;;;;;;;;;;;-144.47;100.00;61586.06;5022474;28;20327;-75
2023/01/07 06:47:47;;;;;;;;;;;;;;;-144.47;100.00;61586.06;5019143;28;19926;-74
2023/01/07 06:50:13;;;;;;;;;;;;;;;-144.47;100.00;61586.06;5021694;28;19914;-74
2023/01/07 06:52:38;;;;;;;;;;;;;;;-144.47;100.00;61586.06;5020052;28;19918;-74
2023/01/07 06:55:03;;;;;;;;;;;;;;;-144.47;100.00;61586.06;5023518;28;19917;-74
2023/01/07 06:57:29;;;;;;;;;;;;;;;-144.47;100.00;61586.06;5020763;28;20066;-74
2023/01/07 06:59:54;;;;;;;;;;;;;;;-144.47;100.00;61586.06;5017513;28;19967;-74
2023/01/07 07:02:24;;;;;;;;;;;;;;;-144.47;100.00;61586.06;5021917;28;19921;-74
2023/01/07 07:04:50;;;;;;;;;;;;;;;-144.47;100.00;61586.06;5019842;28;19924;-74
2023/01/07 07:07:16;;;;;;;;;;;;;;;-144.47;100.00;61586.06;5020897;28;19917;-75
2023/01/07 07:09:41;;;;;;;;;;;;;;;-144.47;100.00;61586.06;5022031;28;20004;-74
2023/01/07 07:12:07;;;;;;;;;;;;;;;-144.47;100.00;61586.06;5020791;28;20055;-74
2023/01/07 07:14:32;;;;;;;;;;;;;;;-144.47;100.00;61586.06;5022184;28;19925;-74
2023/01/07 07:16:58;;;;;;;;;;;;;;;-144.47;100.00;61586.06;5022156;28;19925;-74
2023/01/07 07:19:23;;;;;;;;;;;;;;;-144.47;100.00;61586.06;5018180;28;20016;-74
2023/01/07 07:21:49;;;;;;;;;;;;;;;-144.47;100.00;61586.06;5021225;28;19924;-74
2023/01/07 07:24:14;;;;;;;;;;;;;;;-144.47;100.00;61586.06;5022625;28;19917;-77
2023/01/07 07:26:40;;;;;;;;;;;;;;;-144.47;100.00;61586.06;5018727;28;19961;-75
2023/01/07 07:29:06;;;;;;;;;;;;;;;-144.47;100.00;61586.06;5026473;28;19964;-75
2023/01/07 07:31:31;;;;;;;;;;;;;;;-144.47;100.00;61586.06;5026460;28;19917;-75
2023/01/07 07:33:57;;;;;;;;;;;;;;;-144.47;100.00;61586.06;5023645;28;19921;-75
2023/01/07 07:36:22;;;;;;;;;;;;;;;-144.47;100.00;61586.06;5024834;28;19956;-75
2023/01/07 07:38:48;;;;;;;;;;;;;;;-144.47;100.00;61586.06;5022173;28;19924;-74
2023/01/07 07:41:13;;;;;;;;;;;;;;;-144.47;100.00;61586.06;5024152;28;19971;-75
2023/01/07 07:43:39;;;;;;;;;;;;;;;-144.47;100.00;61586.06;5024988;28;19964;-75
2023/01/07 07:46:04;;;;;;;;;;;;;;;-144.47;100.00;61586.06;5023999;28;19917;-76
2023/01/07 07:48:30;;;;;;;;;;;;;;;-144.47;100.00;61586.06;5023981;28;19922;-75
2023/01/07 07:50:55;;;;;;;;;;;;;;;-144.47;100.00;61586.06;5025713;28;19963;-75
2023/01/07 07:53:21;;;;;;;;;;;;;;;-144.47;100.00;61586.06;5023416;28;19964;-75
2023/01/07 07:55:46;;;;;;;;;;;;;;;-144.47;100.00;61586.06;5024765;28;19960;-75
2023/01/07 07:58:12;;;;;;;;;;;;;;;-144.47;100.00;61586.06;5022314;28;20072;-74
2023/01/07 08:00:37;;;;;;;;;;;;;;;-144.47;100.00;61586.06;5017998;28;19953;-74
2023/01/07 08:03:03;;;;;;;;;;;;;;;-144.47;100.00;61586.06;5026484;28;19921;-74
2023/01/07 08:05:28;;;;;;;;;;;;;;;-144.47;100.00;61586.06;5023152;28;20023;-74
2023/01/07 08:07:54;;;;;;;;;;;;;;;-144.47;100.00;61586.06;5022948;28;19921;-74
2023/01/07 08:10:20;;;;;;;;;;;;;;;-144.47;100.00;61586.06;5024346;28;19924;-74
2023/01/07 08:12:46;;;;;;;;;;;;;;;-144.47;100.00;61586.06;5021882;28;20012;-75
2023/01/07 08:15:11;;;;;;;;;;;;;;;-144.47;100.00;61586.06;5023294;28;19917;-74
2023/01/07 08:17:37;;;;;;;;;;;;;;;-144.47;100.00;61586.06;5020477;28;20377;-74
2023/01/07 08:20:03;;;;;;;;;;;;;;;-144.47;100.00;61586.06;5022540;28;19932;-76
2023/01/07 08:22:29;;;;;;;;;;;;;;;-144.47;100.00;61586.06;5023772;28;19925;-76
2023/01/07 08:24:55;;;;;;;;;;;;;;;-144.47;100.00;61586.06;5024393;28;20294;-75
2023/01/07 08:27:21;;;;;;;;;;;;;;;-144.47;100.00;61586.06;5020302;28;19925;-74
2023/01/07 08:29:46;;;;;;;;;;;;;;;-144.47;100.00;61586.06;5020191;28;19924;-74
2023/01/07 08:32:12;;;;;;;;;;;;;;;-144.47;100.00;61586.06;5022393;28;19980;-74
2023/01/07 08:34:37;;;;;;;;;;;;;;;-144.47;100.00;61586.06;5021275;28;20350;-74
2023/01/07 08:37:02;;;;;;;;;;;;;;;-144.47;100.00;61586.06;5021377;28;20335;-75
2023/01/07 08:39:28;;;;;;;;;;;;;;;-144.47;100.00;61586.06;5021463;28;19917;-76
2023/01/07 08:41:53;;;;;;;;;;;;;;;-144.47;100.00;61586.06;5020099;28;19939;-75
2023/01/07 08:44:19;;;;;;;;;;;;;;;-144.47;100.00;61586.06;5022980;28;20297;-75
2023/01/07 08:46:44;;;;;;;;;;;;;;;-144.47;100.00;61586.06;5020078;28;19975;-75
2023/01/07 08:49:09;;;;;;;;;;;;;;;-144.47;100.00;61586.06;5017761;28;19927;-75
2023/01/07 08:51:35;;;;;;;;;;;;;;;-144.47;100.00;61586.06;5019095;28;19939;-75
2023/01/07 08:54:01;;;;;;;;;;;;;;;-144.47;100.00;61586.06;5018250;28;20003;-75
2023/01/07 08:56:26;;;;;;;;;;;;;;;-144.47;100.00;61586.06;5023824;28;20333;-75
2023/01/07 08:58:51;;;;;;;;;;;;;;;-144.47;100.00;61586.06;5018129;28;19917;-75
2023/01/07 09:01:17;;;;;;;;;;;;;;;-144.47;100.00;61586.06;5010244;28;19995;-75
2023/01/07 09:03:42;;;;;;;;;;;;;;;-144.47;100.00;61586.06;5020000;28;19959;-76
2023/01/07 09:06:08;;;;;;;;;;;;;;;-144.47;100.00;61586.06;5018686;28;19917;-74
2023/01/07 09:08:34;;;;;;;;;;;;;;;-144.47;100.00;61586.06;5020726;28;19918;-73
2023/01/07 09:10:59;;;;;;;;;;;;;;;-144.47;100.00;61586.06;5021384;28;19917;-74
2023/01/07 09:13:24;;;;;;;;;;;;;;;-144.47;100.00;61586.06;4999840;28;19918;-74
2023/01/07 09:15:51;;;;;;;;;;;;;;;-144.47;100.00;61586.06;5022756;28;19921;-73
2023/01/07 09:18:17;;;;;;;;;;;;;;;-144.47;100.00;61586.06;5014003;28;19996;-74
2023/01/07 09:20:42;;;;;;;;;;;;;;;-144.47;100.00;61586.06;5013716;28;19952;-74
2023/01/07 09:23:07;;;;;;;;;;;;;;;-144.47;100.00;61586.06;5018296;28;20512;-74
2023/01/07 09:25:33;;;;;;;;;;;;;;;-144.47;100.00;61586.06;5021763;28;19925;-73
2023/01/07 09:27:58;;;;;;;;;;;;;;;-144.47;100.00;61586.06;5012351;28;20039;-75
2023/01/07 09:30:24;;;;;;;;;;;;;;;-144.47;100.00;61586.06;5016435;28;19918;-73
2023/01/07 09:32:49;;;;;;;;;;;;;;;-144.47;100.00;61586.06;5012436;28;19917;-74
2023/01/07 09:35:15;;;;;;;;;;;;;;;-144.47;100.00;61586.06;5014176;28;19917;-74
2023/01/07 09:37:40;;;;;;;;;;;;;;;-144.47;100.00;61586.06;5019684;28;19921;-75
2023/01/07 09:40:07;;;;;;;;;;;;;;;-144.47;100.00;61586.06;5023823;28;19979;-74
2023/01/07 09:42:38;;;;;;;;;;;;;;;-144.47;100.00;61586.06;5019192;28;20289;-75
2023/01/07 09:45:04;;;;;;;;;;;;;;;-144.47;100.00;61586.06;5018790;28;19921;-75
2023/01/07 09:47:32;;;;;;;;;;;;;;;-144.47;100.00;61586.06;5019293;28;19995;-75
2023/01/07 09:50:02;;;;;;;;;;;;;;;-144.47;100.00;61586.06;5018641;28;19959;-75
2023/01/07 09:52:40;;;;;;;;;;;;;;;-144.47;100.00;61586.06;5019196;28;19917;-75
2023/01/07 09:55:15;;;;;;;;;;;;;;;-144.47;100.00;61586.06;5021214;28;19924;-82
2023/01/07 09:57:40;;;;;;;;;;;;;;;-144.47;100.00;61586.06;5017202;28;19928;-78
2023/01/07 10:00:12;;;;;;;;;;;;;;;-144.47;100.00;61586.06;5020536;28;19916;-77
2023/01/07 10:02:41;;;;;;;;;;;;;;;-144.47;100.00;61586.06;5014068;28;19927;-77
2023/01/07 10:05:19;;;;;;;;;;;;;;;-144.47;100.00;61586.06;5012582;28;19960;-75
2023/01/07 10:08:05;;;;;;;;;;;;;;;-144.47;100.00;61586.06;5027384;28;20019;-77
2023/01/07 10:10:39;;;;;;;;;;;;;;;-144.47;100.00;61586.06;5012163;28;19927;-77
2023/01/07 10:13:20;;;;;;;;;;;;;;;-144.47;100.00;61586.06;5013739;28;20117;-77
2023/01/07 10:16:02;;;;;;;;;;;;;;;-144.47;100.00;61586.06;5015260;28;20330;-78
2023/01/07 10:18:32;;;;;;;;;;;;;;;-144.47;100.00;61586.06;5013334;28;20412;-76
2023/01/07 10:21:12;;;;;;;;;;;;;;;-144.47;100.00;61586.06;5013574;28;19917;-76
2023/01/07 10:23:40;;;;;;;;;;;;;;;-144.47;100.00;61586.06;5018616;28;19918;-77
2023/01/07 10:26:13;;;;;;;;;;;;;;;-144.47;100.00;61586.06;5024455;28;19924;-77
2023/01/07 10:28:59;;;;;;;;;;;;;;;-144.47;100.00;61586.06;5015140;28;19918;-77
2023/01/07 10:31:26;;;;;;;;;;;;;;;-144.47;100.00;61586.06;5021581;28;19917;-76
2023/01/07 10:33:51;;;;;;;;;;;;;;;-144.47;100.00;61586.06;5019783;28;19917;-74
2023/01/07 10:36:20;;;;;;;;;;;;;;;-144.47;100.00;61586.06;5022144;28;19940;-75
2023/01/07 10:38:55;;;;;;;;;;;;;;;-144.47;100.00;61586.06;5019511;28;19925;-76
2023/01/07 10:41:28;;;;;;;;;;;;;;;-144.47;100.00;61586.06;5013988;28;20397;-77
2023/01/07 10:44:06;;;;;;;;;;;;;;;-144.47;100.00;61586.06;5011310;28;19921;-77
2023/01/07 10:46:50;;;;;;;;;;;;;;;-144.47;100.00;61586.06;5009708;28;19999;-76
2023/01/07 10:49:18;;;;;;;;;;;;;;;-144.47;100.00;61586.06;5007048;28;20374;-77
2023/01/07 10:52:01;;;;;;;;;;;;;;;-144.47;100.00;61586.06;5011578;28;20357;-77
2023/01/07 10:54:29;;;;;;;;;;;;;;;-144.47;100.00;61586.06;5012584;28;20396;-77
2023/01/07 10:56:57;;;;;;;;;;;;;;;-144.47;100.00;61586.06;5018376;28;19921;-78
2023/01/07 10:59:23;;;;;;;;;;;;;;;-144.47;100.00;61586.06;5017922;28;20377;-76
2023/01/07 11:01:53;;;;;;;;;;;;;;;-144.47;100.00;61586.06;5013716;28;20411;-75
2023/01/07 11:04:19;;;;;;;;;;;;;;;-144.47;100.00;61586.06;5012428;28;19924;-78
2023/01/07 11:06:57;;;;;;;;;;;;;;;-144.47;100.00;61586.06;5013773;28;20020;-77
2023/01/07 11:09:30;;;;;;;;;;;;;;;-144.47;100.00;61586.06;5012079;28;20342;-79
2023/01/07 11:11:57;;;;;;;;;;;;;;;-144.47;100.00;61586.06;5000033;28;19971;-78
2023/01/07 11:14:25;;;;;;;;;;;;;;;-144.47;100.00;61586.06;5018955;28;19917;-79
2023/01/07 11:16:53;;;;;;;;;;;;;;;-144.47;100.00;61586.06;4963481;28;1250777;-78
2023/01/07 11:19:18;;;;;;;;;;;;;;;-144.47;100.00;61586.06;5003643;28;20420;-78
2023/01/07 11:21:45;;;;;;;;;;;;;;;-144.47;100.00;61586.06;5004653;28;19925;-78
2023/01/07 11:24:22;;;;;;;;;;;;;;;-144.47;100.00;61586.06;5002433;28;20400;-74
2023/01/07 11:26:48;;;;;;;;;;;;;;;-144.47;100.00;61586.06;5008454;28;20465;-78
2023/01/07 11:29:20;;;;;;;;;;;;;;;-144.47;100.00;61586.06;5000945;28;20004;-75
2023/01/07 11:31:45;;;;;;;;;;;;;;;-144.47;100.00;61586.06;5002237;28;19963;-76
2023/01/07 11:34:25;;;;;;;;;;;;;;;-144.47;100.00;61586.06;5008827;28;19983;-79
2023/01/07 11:36:51;;;;;;;;;;;;;;;-144.47;100.00;61586.06;5002812;28;19952;-77
2023/01/07 11:39:37;;;;;;;;;;;;;;;-144.47;100.00;61586.06;5020244;28;19952;-77
2023/01/07 11:45:14;;;;;;;;;;;;;;;-144.47;100.00;61586.06;5020878;28;20473;-76
2023/01/07 11:48:06;;;;;;;;;;;;;;;-144.47;100.00;61586.06;5025126;28;20428;-78
2023/01/07 11:50:36;;;;;;;;;;;;;;;-144.47;100.00;61586.06;5020896;28;20428;-76
2023/01/07 11:53:09;;;;;;;;;;;;;;;-144.47;100.00;61586.06;5021720;28;20393;-78
2023/01/07 11:55:34;;;;;;;;;;;;;;;-144.47;100.00;61586.06;5016848;28;19917;-76
2023/01/07 11:58:00;;;;;;;;;;;;;;;-144.47;100.00;61586.06;5027592;28;20080;-77
2023/01/07 12:00:28;;;;;;;;;;;;;;;-144.47;100.00;61586.06;5023306;28;20023;-78
2023/01/07 12:03:10;;;;;;;;;;;;;;;-144.47;100.00;61586.06;5021881;28;20352;-77
2023/01/07 12:05:36;;;;;;;;;;;;;;;-144.47;100.00;61586.06;5022454;28;19928;-77
2023/01/07 12:08:02;;;;;;;;;;;;;;;-144.47;100.00;61586.06;5020530;28;19921;-76
2023/01/07 12:10:27;;;;;;;;;;;;;;;-144.47;100.00;61586.06;5021539;28;20358;-75
2023/01/07 12:12:53;;;;;;;;;;;;;;;-144.47;100.00;61586.06;5021819;28;19924;-76
2023/01/07 12:15:18;;;;;;;;;;;;;;;-144.47;100.00;61586.06;5009543;28;19929;-76
2023/01/07 12:17:45;;;;;;;;;;;;;;;-144.47;100.00;61586.06;5016720;28;19979;-75
2023/01/07 12:20:26;;;;;;;;;;;;;;;-144.47;100.00;61586.06;5021254;28;19932;-77
2023/01/07 12:22:54;;;;;;;;;;;;;;;-144.47;100.00;61586.06;5018038;28;19925;-76
2023/01/07 12:25:23;;;;;;;;;;;;;;;-144.47;100.00;61586.06;5011328;28;19968;-77